This is the latest recevied weather packets stored in our database for station/object WX7FGZ-3. If no packets are shown the sender has not sent any weather packets the latest 10 day(s).
| Time | Temp. | Humidity | Pressure | Rain* | Wind** | Luminosity | Snow |
|---|---|---|---|---|---|---|---|
| 1777615779 | 0.56° C | 43% | 1011.2 hPa | 0 mm | - | - | - |
| 1777615479 | 0.56° C | 41% | 1011.3 hPa | 0 mm | - | - | - |
| 1777614879 | 0.56° C | 44% | 1011.1 hPa | 0 mm | - | - | - |
| 1777613978 | 1.11° C | 40% | 1011.1 hPa | 0 mm | - | - | - |
| 1777613678 | 1.11° C | 45% | 1011.1 hPa | 0 mm | - | - | - |
| 1777613077 | 1.67° C | 35% | 1011 hPa | 0 mm | - | - | - |
| 1777611875 | 1.11° C | 41% | 1010.9 hPa | 0 mm | - | - | - |
| 1777611576 | 1.11° C | 34% | 1010.8 hPa | 0 mm | - | - | - |
| 1777611276 | 1.11° C | 35% | 1010.8 hPa | 0 mm | - | - | - |
| 1777610975 | 1.11° C | 33% | 1010.8 hPa | 0 mm | - | - | - |
| 1777610374 | 1.67° C | 34% | 1011 hPa | 0 mm | - | - | - |
| 1777610075 | 2.22° C | 33% | 1010.8 hPa | 0 mm | - | - | - |
| 1777609773 | 2.22° C | 33% | 1010.8 hPa | 0 mm | - | - | - |
| 1777609173 | 2.78° C | 30% | 1010.9 hPa | 0 mm | - | - | - |
| 1777607672 | 5° C | 28% | 1010.4 hPa | 0 mm | - | - | - |
| 1777606471 | 6.67° C | 26% | 1010.1 hPa | 0 mm | - | - | - |
| 1777605270 | 8.33° C | 24% | 1010 hPa | 0 mm | - | - | - |
| 1777604669 | 8.89° C | 24% | 1009.8 hPa | 0 mm | - | - | - |
| 1777603467 | 9.44° C | 23% | 1009.5 hPa | 0 mm | - | - | - |
| 1777603167 | 9.44° C | 23% | 1009.4 hPa | 0 mm | - | - | - |
| 1777602867 | 10° C | 23% | 1009.3 hPa | 0 mm | - | - | - |
| 1777602566 | 10° C | 23% | 1009.3 hPa | 0 mm | - | - | - |
| 1777602266 | 10° C | 23% | 1009.4 hPa | 0 mm | - | - | - |
| 1777601666 | 10.56° C | 23% | 1009.2 hPa | 0 mm | - | - | - |
| 1777601365 | 11.11° C | 23% | 1009.1 hPa | 0 mm | - | - | - |
* Rain latest hour (hover to see other rain measurements)
** Current wind speed in m/s (hover to see current wind gust speed)